createdAt,value
2022-11-04T00:00:30.146Z,94952.31
2022-11-04T00:02:58.688Z,95052.50
2022-11-04T00:05:26.745Z,95019.56
2022-11-04T00:08:13.740Z,95012.41
2022-11-04T00:10:58.890Z,95030.84
2022-11-04T00:13:26.969Z,95031.91
2022-11-04T00:16:12.460Z,94925.44
2022-11-04T00:18:40.489Z,95042.69
2022-11-04T00:21:26.286Z,95048.06
2022-11-04T00:24:13.038Z,94982.06
2022-11-04T00:26:54.932Z,95045.38
2022-11-04T00:29:23.129Z,95042.44
2022-11-04T00:32:23.535Z,94944.75
2022-11-04T00:34:51.677Z,95008.59
2022-11-04T00:37:19.866Z,94936.13
2022-11-04T00:39:49.280Z,95044.34
2022-11-04T00:42:17.396Z,94987.06
2022-11-04T00:44:45.642Z,95034.25
2022-11-04T00:47:13.793Z,95027.13
2022-11-04T00:49:43.662Z,95039.09
2022-11-04T00:52:11.754Z,94932.25
2022-11-04T00:54:39.826Z,95015.28
2022-11-04T00:57:11.985Z,95032.25
2022-11-04T00:59:40.686Z,94987.88
2022-11-04T01:02:11.037Z,95031.00
2022-11-04T01:04:39.204Z,95007.22
2022-11-04T01:07:07.430Z,95005.34
2022-11-04T01:09:35.616Z,94978.06
2022-11-04T01:12:03.621Z,95019.88
2022-11-04T01:14:33.181Z,95019.19
2022-11-04T01:17:01.418Z,95023.50
2022-11-04T01:19:29.584Z,94995.81
2022-11-04T01:21:57.649Z,95018.78
2022-11-04T01:24:25.727Z,94983.69
2022-11-04T01:26:53.902Z,94982.91
2022-11-04T01:29:21.966Z,94994.44
2022-11-04T01:31:51.701Z,95021.34
2022-11-04T01:34:19.728Z,95016.88
2022-11-04T01:36:47.940Z,95007.31
2022-11-04T01:39:16.121Z,94982.34
2022-11-04T01:41:44.333Z,94988.94
2022-11-04T01:45:01.299Z,94995.91
2022-11-04T01:47:36.006Z,95008.13
2022-11-04T01:50:08.430Z,95010.44
2022-11-04T01:52:39.870Z,95009.78
2022-11-04T01:55:11.513Z,94987.84
2022-11-04T01:57:43.402Z,95012.59
2022-11-04T02:00:13.561Z,94950.50
2022-11-04T02:02:52.285Z,94901.31
2022-11-04T02:05:20.642Z,95000.03
2022-11-04T02:07:52.190Z,94991.06
2022-11-04T02:10:22.703Z,94989.59
2022-11-04T02:12:49.882Z,94994.81
2022-11-04T02:15:20.173Z,94986.19
2022-11-04T02:18:15.145Z,94970.38
2022-11-04T02:21:01.333Z,94882.66
2022-11-04T02:23:52.733Z,94978.97
2022-11-04T02:27:04.926Z,94983.63
2022-11-04T02:29:51.430Z,94973.03
2022-11-04T02:32:25.777Z,94958.66
2022-11-04T02:35:04.930Z,94980.03
2022-11-04T02:37:43.157Z,94819.97
2022-11-04T02:40:21.085Z,94977.03
2022-11-04T02:42:54.918Z,94973.56
2022-11-04T02:45:26.136Z,94866.78
2022-11-04T02:47:58.456Z,94967.19
2022-11-04T02:50:34.314Z,94922.19
2022-11-04T02:53:06.830Z,94955.91
2022-11-04T02:55:36.981Z,94929.19
2022-11-04T02:58:08.262Z,94931.06
2022-11-04T03:00:38.493Z,94961.91
2022-11-04T03:03:09.803Z,94973.59
2022-11-04T03:05:40.226Z,94966.47
2022-11-04T03:08:11.678Z,94961.19
2022-11-04T03:10:43.208Z,94919.47
2022-11-04T03:13:13.981Z,94981.13
2022-11-04T03:15:50.026Z,94968.25
2022-11-04T03:18:24.523Z,94938.31
2022-11-04T03:20:53.118Z,94983.22
2022-11-04T03:23:21.251Z,94961.50
2022-11-04T03:25:52.531Z,94997.59
2022-11-04T03:28:27.271Z,95013.06
2022-11-04T03:31:00.579Z,95012.69
2022-11-04T03:33:34.201Z,95038.63
2022-11-04T03:36:03.144Z,95053.69
2022-11-04T03:38:31.460Z,95046.25
2022-11-04T03:41:01.167Z,95052.59
2022-11-04T03:43:29.766Z,95023.69
2022-11-04T03:45:59.440Z,95040.09
2022-11-04T03:48:28.131Z,95062.00
2022-11-04T03:50:56.236Z,95066.47
2022-11-04T03:56:11.444Z,95055.47
2022-11-04T03:58:45.568Z,95038.19
2022-11-04T04:01:31.683Z,95091.25
2022-11-04T04:04:02.683Z,95060.53
2022-11-04T04:06:32.715Z,95085.72
2022-11-04T04:09:05.774Z,94910.00
2022-11-04T04:11:40.820Z,95075.53
2022-11-04T04:14:36.746Z,95079.19
2022-11-04T04:19:38.216Z,95068.03
2022-11-04T04:22:11.011Z,95076.03
2022-11-04T04:24:58.933Z,95062.13
2022-11-04T04:27:33.062Z,95046.81
2022-11-04T04:30:03.674Z,95064.47
2022-11-04T04:32:36.775Z,94992.25
2022-11-04T04:35:22.775Z,95013.75
2022-11-04T04:37:51.863Z,95057.47
2022-11-04T04:40:39.286Z,95060.34
2022-11-04T04:43:25.087Z,95040.81
2022-11-04T04:45:55.219Z,95043.75
2022-11-04T04:48:24.718Z,95046.97
2022-11-04T04:50:56.958Z,95034.31
2022-11-04T04:53:25.049Z,95073.03
2022-11-04T04:55:53.085Z,95014.22
2022-11-04T04:58:21.279Z,95000.91
2022-11-04T05:00:49.466Z,95077.56
2022-11-04T05:03:17.655Z,95060.97
2022-11-04T05:05:47.118Z,95046.66
2022-11-04T05:08:15.233Z,95070.69
2022-11-04T05:10:43.258Z,95071.63
2022-11-04T05:13:30.641Z,95057.88
2022-11-04T05:15:58.807Z,95053.84
2022-11-04T05:18:26.920Z,95046.28
2022-11-04T05:20:56.318Z,95051.13
2022-11-04T05:23:24.355Z,95023.53
2022-11-04T05:25:52.348Z,95055.22
2022-11-04T05:28:20.315Z,95049.06
2022-11-04T05:30:48.298Z,95056.09
2022-11-04T05:33:16.304Z,94970.50
2022-11-04T05:35:44.323Z,95086.59
2022-11-04T05:38:13.819Z,95088.50
2022-11-04T05:40:41.841Z,95097.63
2022-11-04T05:43:10.091Z,95097.50
2022-11-04T05:45:38.434Z,95100.06
2022-11-04T05:48:06.880Z,95104.91
2022-11-04T05:50:35.097Z,95100.28
2022-11-04T05:53:03.247Z,95104.44
2022-11-04T05:55:32.686Z,95106.50
2022-11-04T05:58:00.751Z,95116.19
2022-11-04T06:00:29.290Z,95110.69
2022-11-04T06:02:58.720Z,95084.69
2022-11-04T06:05:29.320Z,95114.28
2022-11-04T06:07:58.340Z,95093.63
2022-11-04T06:10:26.793Z,95029.44
2022-11-04T06:12:56.221Z,95091.25
2022-11-04T06:15:24.366Z,95115.31
2022-11-04T06:17:52.641Z,95122.72
2022-11-04T06:20:21.186Z,95118.53
2022-11-04T06:22:49.254Z,95126.88
2022-11-04T06:25:17.465Z,95131.47
2022-11-04T06:27:45.766Z,95117.06
2022-11-04T06:30:15.414Z,95130.34
2022-11-04T06:32:43.568Z,95121.81
2022-11-04T06:35:11.605Z,95132.28
2022-11-04T06:37:39.689Z,95143.22
2022-11-04T06:40:09.299Z,95120.06
2022-11-04T06:42:37.426Z,95079.06
2022-11-04T06:45:06.145Z,95122.84
2022-11-04T06:47:35.843Z,95126.13
2022-11-04T06:50:08.311Z,95131.78
2022-11-04T06:52:41.946Z,95136.84
2022-11-04T06:55:11.172Z,95133.00
2022-11-04T06:57:39.342Z,95077.53
2022-11-04T07:00:09.101Z,95144.59
2022-11-04T07:02:39.124Z,95154.13
2022-11-04T07:05:09.069Z,95130.44
2022-11-04T07:07:41.488Z,95150.19
2022-11-04T07:10:11.754Z,95149.22
2022-11-04T07:12:40.011Z,95112.22
2022-11-04T07:15:09.300Z,95139.28
2022-11-04T07:17:38.756Z,95143.13
2022-11-04T07:20:07.824Z,95108.19
2022-11-04T07:22:35.926Z,95132.50
2022-11-04T07:25:04.457Z,95130.25
2022-11-04T07:27:32.566Z,95133.19
2022-11-04T07:30:00.713Z,95031.84
2022-11-04T07:32:29.070Z,95106.81
2022-11-04T07:34:58.531Z,95112.31
2022-11-04T07:37:26.934Z,95111.94
2022-11-04T07:39:55.123Z,95115.16
2022-11-04T07:42:23.112Z,95123.59
2022-11-04T07:44:51.087Z,95126.50
2022-11-04T07:47:19.113Z,95111.34
2022-11-04T07:49:47.160Z,95122.91
2022-11-04T07:52:16.727Z,95105.63
2022-11-04T07:54:44.787Z,95113.03
2022-11-04T07:57:12.851Z,95098.03
2022-11-04T07:59:41.256Z,95127.78
2022-11-04T08:02:11.342Z,95121.16
2022-11-04T08:04:40.697Z,95101.78
2022-11-04T08:07:09.845Z,95117.94
2022-11-04T08:09:39.365Z,95035.94
2022-11-04T08:12:08.074Z,95102.84
2022-11-04T08:14:36.251Z,95101.94
2022-11-04T08:17:04.991Z,95081.97
2022-11-04T08:19:33.324Z,95106.97
2022-11-04T08:26:26.025Z,95093.28
2022-11-04T08:29:28.845Z,95087.22
2022-11-04T08:32:17.565Z,95099.53
2022-11-04T08:34:57.639Z,95088.44
2022-11-04T08:37:25.707Z,95088.59
2022-11-04T08:39:53.832Z,95084.97
2022-11-04T08:42:23.319Z,95004.31
2022-11-04T08:44:52.681Z,94967.06
2022-11-04T08:47:20.866Z,95046.78
2022-11-04T08:49:49.284Z,95057.78
2022-11-04T08:52:18.028Z,95027.97
2022-11-04T08:54:46.049Z,95054.44
2022-11-04T08:57:14.620Z,95057.94
2022-11-04T08:59:44.093Z,95059.72
2022-11-04T09:02:15.646Z,95054.47
2022-11-04T09:04:44.327Z,94959.69
2022-11-04T09:07:13.530Z,95060.78
2022-11-04T09:09:42.508Z,95055.94
2022-11-04T09:12:11.377Z,95023.44
2022-11-04T09:14:39.577Z,95030.81
2022-11-04T09:17:08.993Z,95041.88
2022-11-04T09:19:37.047Z,95055.44
2022-11-04T09:22:05.228Z,95059.59
2022-11-04T09:24:33.283Z,95048.19
2022-11-04T09:27:01.487Z,95054.63
2022-11-04T09:29:33.620Z,95057.47
2022-11-04T09:32:02.378Z,95062.81
2022-11-04T09:34:32.279Z,95036.31
2022-11-04T09:37:01.059Z,95061.72
2022-11-04T09:39:29.189Z,95060.41
2022-11-04T09:42:19.825Z,95061.34
2022-11-04T09:45:21.087Z,95051.78
2022-11-04T09:47:40.839Z,95049.56
2022-11-04T09:50:19.967Z,95036.63
2022-11-04T09:52:51.215Z,95040.34
2022-11-04T09:55:22.506Z,95038.94
2022-11-04T09:57:55.817Z,95036.50
2022-11-04T10:00:24.096Z,95018.88
2022-11-04T10:03:03.153Z,95018.75
2022-11-04T10:05:46.485Z,94954.34
2022-11-04T10:08:33.903Z,95018.41
2022-11-04T10:11:09.955Z,95012.97
2022-11-04T10:13:48.032Z,95014.16
2022-11-04T10:16:25.607Z,95021.38
2022-11-04T10:19:17.153Z,95020.34
2022-11-04T10:22:06.049Z,95007.06
2022-11-04T10:24:43.528Z,94989.78
2022-11-04T10:27:16.966Z,94996.22
2022-11-04T10:29:46.908Z,94988.69
2022-11-04T10:32:22.356Z,94951.69
2022-11-04T10:34:58.219Z,94977.59
2022-11-04T10:37:30.885Z,94980.97
2022-11-04T10:40:05.233Z,94969.19
2022-11-04T10:42:33.877Z,94944.13
2022-11-04T10:45:02.283Z,94960.97
2022-11-04T10:47:38.875Z,94969.75
2022-11-04T10:50:29.465Z,94965.94
2022-11-04T10:53:11.833Z,94937.19
2022-11-04T10:55:46.189Z,94963.41
2022-11-04T10:58:19.744Z,94974.69
2022-11-04T11:00:48.345Z,94963.19
2022-11-04T11:03:32.372Z,94955.94
2022-11-04T11:06:16.898Z,94958.72
2022-11-04T11:08:48.039Z,94954.63
2022-11-04T11:11:17.436Z,94939.06
2022-11-04T11:13:46.820Z,94927.66
2022-11-04T11:16:19.641Z,94912.63
2022-11-04T11:19:15.093Z,94908.47
2022-11-04T11:21:48.871Z,94907.00
2022-11-04T11:24:21.560Z,94891.78
2022-11-04T11:26:50.980Z,94891.16
2022-11-04T11:29:23.125Z,94848.25
2022-11-04T11:31:52.969Z,94906.13
2022-11-04T11:34:26.434Z,94907.88
2022-11-04T11:36:55.894Z,94885.91
2022-11-04T11:39:28.818Z,94900.19
2022-11-04T11:41:59.542Z,94906.59
2022-11-04T11:44:33.138Z,94891.38
2022-11-04T11:47:04.511Z,94902.28
2022-11-04T11:49:34.575Z,94870.81
2022-11-04T11:52:26.335Z,94882.53
2022-11-04T11:55:03.196Z,94831.00
2022-11-04T11:57:37.419Z,94874.16
2022-11-04T12:03:01.649Z,94867.88
2022-11-04T12:11:38.748Z,94883.59
2022-11-04T12:14:07.677Z,94901.19
2022-11-04T12:16:41.715Z,94889.50
2022-11-04T12:19:17.933Z,94890.00
2022-11-04T12:21:48.895Z,94907.53
2022-11-04T12:24:28.655Z,94920.84
2022-11-04T12:27:03.849Z,94921.81
2022-11-04T12:29:41.107Z,94846.63
2022-11-04T12:32:15.056Z,94816.75
2022-11-04T12:34:54.551Z,94904.88
2022-11-04T12:37:30.025Z,94732.38
2022-11-04T12:40:08.705Z,94918.47
2022-11-04T12:42:46.464Z,94922.59
2022-11-04T12:45:26.147Z,94924.69
2022-11-04T12:47:57.426Z,94919.38
2022-11-04T12:50:38.821Z,94922.38
2022-11-04T12:53:18.434Z,94915.56
2022-11-04T12:55:53.173Z,94910.06
2022-11-04T12:58:40.554Z,94932.16
2022-11-04T13:01:15.255Z,94943.78
2022-11-04T13:03:49.092Z,94918.38
2022-11-04T13:06:19.070Z,94940.50
2022-11-04T13:08:51.193Z,94941.56
2022-11-04T13:11:24.489Z,94952.22
2022-11-04T13:14:02.021Z,94946.72
2022-11-04T13:16:31.943Z,94963.97
2022-11-04T13:19:00.860Z,94966.66
2022-11-04T13:21:32.320Z,94955.53
2022-11-04T13:24:04.387Z,94969.69
2022-11-04T13:26:34.171Z,94953.94
2022-11-04T13:29:09.267Z,94975.72
2022-11-04T13:31:48.056Z,94965.81
2022-11-04T13:34:23.883Z,94974.41
2022-11-04T13:36:57.978Z,94999.81
2022-11-04T13:39:29.345Z,95002.78
2022-11-04T13:42:24.688Z,94993.78
2022-11-04T13:44:58.076Z,94982.63
2022-11-04T13:47:28.139Z,94982.91
2022-11-04T13:49:57.366Z,94893.31
2022-11-04T13:52:28.306Z,95008.44
2022-11-04T13:54:59.545Z,95031.28
2022-11-04T13:57:29.173Z,95010.03
2022-11-04T14:00:27.102Z,95032.09
2022-11-04T14:02:57.843Z,95033.84
2022-11-04T14:06:03.471Z,95041.91
2022-11-04T14:08:31.917Z,95030.19
2022-11-04T14:11:11.331Z,95051.31
2022-11-04T14:14:03.579Z,95040.72
2022-11-04T14:16:47.164Z,95030.22
2022-11-04T14:19:57.211Z,95058.56
2022-11-04T14:22:33.799Z,95046.56
2022-11-04T14:25:03.938Z,95047.22
2022-11-04T14:27:41.109Z,95064.53
2022-11-04T14:30:33.202Z,95063.63
2022-11-04T14:33:04.165Z,95056.78
2022-11-04T14:35:32.903Z,95062.00
2022-11-04T14:38:08.243Z,95069.16
2022-11-04T14:40:48.674Z,95064.31
2022-11-04T14:43:35.042Z,95066.88
2022-11-04T14:46:07.352Z,95047.88
2022-11-04T14:48:37.075Z,95082.22
2022-11-04T14:51:05.673Z,95085.59
2022-11-04T14:53:35.332Z,95089.38
2022-11-04T14:56:08.445Z,95087.50
2022-11-04T14:58:37.619Z,95081.38
2022-11-04T15:01:07.705Z,94971.81
2022-11-04T15:04:10.875Z,94995.06
2022-11-04T15:06:40.587Z,95095.25
2022-11-04T15:09:24.048Z,95092.88
2022-11-04T15:12:11.162Z,95084.34
2022-11-04T15:14:39.323Z,95091.69
2022-11-04T15:17:07.381Z,95096.41
2022-11-04T15:19:38.093Z,95102.19
2022-11-04T15:22:07.716Z,95009.91
2022-11-04T15:24:36.365Z,95091.72
2022-11-04T15:27:06.937Z,95078.81
2022-11-04T15:29:35.109Z,95087.22
2022-11-04T15:32:05.441Z,95066.53
2022-11-04T15:34:35.175Z,95103.69
2022-11-04T15:37:06.396Z,95090.88
2022-11-04T15:39:37.694Z,95096.84
2022-11-04T15:42:25.381Z,95092.97
2022-11-04T15:44:55.758Z,95091.97
2022-11-04T15:47:25.204Z,95083.84
2022-11-04T15:49:54.831Z,95084.31
2022-11-04T15:52:25.937Z,95111.59
2022-11-04T15:54:55.314Z,95045.91
2022-11-04T15:57:25.472Z,95096.34
2022-11-04T16:00:01.592Z,95094.19
2022-11-04T16:02:31.138Z,95101.00
2022-11-04T16:05:08.354Z,95113.72
2022-11-04T16:07:40.818Z,95132.38
2022-11-04T16:10:31.749Z,95121.69
2022-11-04T16:13:02.690Z,95099.53
2022-11-04T16:15:33.416Z,95135.63
2022-11-04T16:18:01.848Z,95114.94
2022-11-04T16:20:31.068Z,95132.03
2022-11-04T16:23:03.201Z,95143.03
2022-11-04T16:25:33.505Z,95142.47
2022-11-04T16:28:01.844Z,95154.47
2022-11-04T16:30:30.233Z,95151.22
2022-11-04T16:33:10.556Z,95173.81
2022-11-04T16:35:42.640Z,95179.59
2022-11-04T16:38:13.080Z,95188.72
2022-11-04T16:40:41.544Z,95188.97
2022-11-04T17:05:14.685Z,95210.13
2022-11-04T17:07:53.632Z,95210.59
2022-11-04T17:10:31.434Z,95202.88
2022-11-04T17:13:09.599Z,95211.66
2022-11-04T17:16:13.657Z,95208.28
2022-11-04T17:19:00.009Z,95208.06
2022-11-04T17:21:38.398Z,95199.28
2022-11-04T17:24:11.479Z,95193.81
2022-11-04T17:29:39.800Z,95205.50
2022-11-04T17:32:16.749Z,95210.47
2022-11-04T17:34:47.889Z,95204.13
2022-11-04T17:37:24.037Z,95209.91
2022-11-04T17:39:52.411Z,95209.00
2022-11-04T17:42:38.243Z,95177.53
2022-11-04T17:45:07.850Z,95222.63
2022-11-04T17:47:37.515Z,95216.34
2022-11-04T17:50:08.463Z,95201.34
2022-11-04T17:52:40.096Z,95220.53
2022-11-04T17:55:15.445Z,95220.53
2022-11-04T17:57:45.812Z,95200.28
2022-11-04T18:00:16.339Z,95194.63
2022-11-04T18:02:44.786Z,95227.03
2022-11-04T18:05:13.525Z,95227.94
2022-11-04T18:07:43.765Z,95259.88
2022-11-04T18:10:13.031Z,95256.75
2022-11-04T18:12:42.047Z,95260.13
2022-11-04T18:15:12.918Z,95272.59
2022-11-04T18:17:43.622Z,95275.16
2022-11-04T18:20:15.787Z,95258.00
2022-11-04T18:22:47.449Z,95236.28
2022-11-04T18:25:16.178Z,95286.16
2022-11-04T18:27:44.980Z,95255.47
2022-11-04T18:30:16.071Z,95236.88
2022-11-04T18:32:44.591Z,95273.19
2022-11-04T18:35:15.331Z,95294.38
2022-11-04T18:37:47.529Z,95295.06
2022-11-04T18:40:16.383Z,95304.94
2022-11-04T18:42:48.865Z,95290.78
2022-11-04T18:45:17.993Z,95244.34
2022-11-04T18:47:49.115Z,95289.50
2022-11-04T18:50:18.106Z,95291.59
2022-11-04T18:52:51.376Z,95285.94
2022-11-04T18:55:20.595Z,95278.88
2022-11-04T18:57:55.926Z,95280.50
2022-11-04T19:00:24.415Z,95277.25
2022-11-04T19:02:53.156Z,95278.66
2022-11-04T19:05:21.991Z,95285.34
2022-11-04T19:07:51.975Z,95278.88
2022-11-04T19:10:23.306Z,95302.03
2022-11-04T19:13:09.437Z,95317.41
2022-11-04T19:15:37.773Z,95305.94
2022-11-04T19:18:12.103Z,95315.69
2022-11-04T19:20:59.601Z,95323.78
2022-11-04T19:23:31.936Z,95308.50
2022-11-04T19:26:02.380Z,95322.13
2022-11-04T19:28:46.852Z,95336.97
2022-11-04T19:31:17.321Z,95330.13
2022-11-04T19:33:45.979Z,95337.44
2022-11-04T19:36:15.568Z,95338.56
2022-11-04T19:38:56.696Z,95335.22
2022-11-04T19:42:03.110Z,95348.16
2022-11-04T19:44:33.069Z,95360.78
2022-11-04T19:47:01.463Z,95363.78
2022-11-04T19:49:31.622Z,95373.75
2022-11-04T19:51:59.978Z,95362.28
2022-11-04T19:54:29.876Z,95382.09
2022-11-04T19:56:58.182Z,95385.13
2022-11-04T19:59:26.786Z,95380.38
2022-11-04T20:01:55.148Z,95392.56
2022-11-04T20:04:23.655Z,95391.03
2022-11-04T20:06:51.893Z,95401.34
2022-11-04T20:09:22.488Z,95404.81
2022-11-04T20:12:09.797Z,95404.94
2022-11-04T20:14:38.500Z,95409.09
2022-11-04T20:17:07.480Z,95406.91
2022-11-04T20:19:38.421Z,95408.06
2022-11-04T20:22:10.772Z,95410.59
2022-11-04T20:24:39.286Z,95415.50
2022-11-04T20:27:09.124Z,95410.50
2022-11-04T20:29:37.334Z,95418.69
2022-11-04T20:32:06.323Z,95418.03
2022-11-04T20:34:34.924Z,95398.22
2022-11-04T20:37:03.587Z,95427.50
2022-11-04T20:39:32.459Z,95425.53
2022-11-04T20:42:00.747Z,95431.78
2022-11-04T20:44:30.224Z,95425.09
2022-11-04T20:46:58.522Z,95441.53
2022-11-04T20:49:26.817Z,95436.56
2022-11-04T20:51:56.650Z,95447.31
2022-11-04T20:54:25.411Z,95455.66
2022-11-04T20:56:53.612Z,95465.72
2022-11-04T20:59:21.930Z,95475.25
2022-11-04T21:01:51.739Z,95474.69
2022-11-04T21:04:21.999Z,95484.31
2022-11-04T21:06:51.809Z,95491.47
2022-11-04T21:09:21.450Z,95476.41
2022-11-04T21:11:50.352Z,95463.06
2022-11-04T21:14:19.749Z,95474.31
2022-11-04T21:16:48.486Z,95472.00
2022-11-04T21:19:18.103Z,95479.19
2022-11-04T21:21:47.650Z,95480.69
2022-11-04T21:24:16.965Z,95477.34
2022-11-04T21:26:45.701Z,95487.44
2022-11-04T21:29:15.471Z,95476.84
2022-11-04T21:31:44.066Z,95485.09
2022-11-04T21:34:12.865Z,95481.75
2022-11-04T21:36:42.578Z,95492.28
2022-11-04T21:39:13.007Z,95489.38
2022-11-04T21:41:41.377Z,95492.16
2022-11-04T21:44:11.827Z,95494.84
2022-11-04T21:46:40.080Z,95492.53
2022-11-04T21:49:08.326Z,95493.69
2022-11-04T21:51:36.839Z,95485.22
2022-11-04T21:54:09.001Z,95499.22
2022-11-04T21:56:37.856Z,95499.34
2022-11-04T21:59:06.682Z,95491.22
2022-11-04T22:01:34.942Z,95489.03
2022-11-04T22:04:03.724Z,95493.88
2022-11-04T22:06:35.318Z,95488.44
2022-11-04T22:09:06.471Z,95479.94
2022-11-04T22:11:39.973Z,95495.72
2022-11-04T22:14:12.803Z,95494.91
2022-11-04T22:16:41.783Z,95499.19
2022-11-04T22:19:13.811Z,95500.34
2022-11-04T22:21:46.384Z,95485.38
2022-11-04T22:24:17.282Z,95503.91
2022-11-04T22:26:46.120Z,95505.75
2022-11-04T22:29:14.588Z,95511.66
2022-11-04T22:31:44.743Z,95516.41
2022-11-04T22:34:13.631Z,95517.13
2022-11-04T22:36:44.767Z,95513.75
2022-11-04T22:39:16.812Z,95519.44
2022-11-04T22:41:48.066Z,95524.66
2022-11-04T22:44:16.518Z,95487.41
2022-11-04T22:46:47.477Z,95516.66
2022-11-04T22:49:15.815Z,95474.41
2022-11-04T22:51:43.975Z,95511.28
2022-11-04T22:54:12.322Z,95506.41
2022-11-04T22:56:40.826Z,95511.63
2022-11-04T22:59:11.627Z,95501.97
2022-11-04T23:01:43.122Z,95526.53
2022-11-04T23:04:14.715Z,95516.06
2022-11-04T23:06:44.055Z,95529.94
2022-11-04T23:09:15.134Z,95515.28
2022-11-04T23:12:01.170Z,95517.13
2022-11-04T23:14:48.450Z,95520.50
2022-11-04T23:17:36.374Z,95507.41
2022-11-04T23:20:07.552Z,95520.00
2022-11-04T23:23:01.443Z,95517.22
2022-11-04T23:25:29.987Z,95520.47
2022-11-04T23:31:12.491Z,95526.16
2022-11-04T23:33:59.288Z,95530.41
2022-11-04T23:36:44.670Z,95532.63
2022-11-04T23:39:12.834Z,95541.09
2022-11-04T23:41:58.818Z,95537.72
2022-11-04T23:44:44.066Z,95533.25
2022-11-04T23:47:29.785Z,95552.00
2022-11-04T23:50:16.839Z,95550.19
2022-11-04T23:53:02.517Z,95495.84
2022-11-04T23:55:48.178Z,95566.28
2022-11-04T23:58:33.552Z,95549.69
